sensor_id;sensor_type;location;lat;lon;timestamp;P1;durP1;ratioP1;P2;durP2;ratioP2
38615;SDS011;24370;51.986;4.666;2023-05-19T00:00:54;1999.90;;;999.90;;
38615;SDS011;24370;51.986;4.666;2023-05-19T00:03:21;1999.90;;;999.90;;
38615;SDS011;24370;51.986;4.666;2023-05-19T00:05:46;1999.90;;;999.90;;
38615;SDS011;24370;51.986;4.666;2023-05-19T00:08:13;1999.90;;;999.90;;
38615;SDS011;24370;51.986;4.666;2023-05-19T00:10:41;1999.90;;;999.90;;
38615;SDS011;24370;51.986;4.666;2023-05-19T00:13:06;1999.90;;;999.90;;
38615;SDS011;24370;51.986;4.666;2023-05-19T00:15:32;1999.90;;;999.90;;
38615;SDS011;24370;51.986;4.666;2023-05-19T00:17:58;1999.90;;;999.90;;
38615;SDS011;24370;51.986;4.666;2023-05-19T00:20:24;1999.90;;;999.90;;
38615;SDS011;24370;51.986;4.666;2023-05-19T00:22:49;1999.90;;;999.90;;
38615;SDS011;24370;51.986;4.666;2023-05-19T00:25:15;1999.90;;;999.90;;
38615;SDS011;24370;51.986;4.666;2023-05-19T00:27:40;1999.90;;;999.90;;
38615;SDS011;24370;51.986;4.666;2023-05-19T00:30:06;1999.90;;;999.90;;
38615;SDS011;24370;51.986;4.666;2023-05-19T00:32:32;1999.90;;;999.90;;
38615;SDS011;24370;51.986;4.666;2023-05-19T00:34:58;1999.90;;;999.90;;
38615;SDS011;24370;51.986;4.666;2023-05-19T00:37:23;1999.90;;;999.90;;
38615;SDS011;24370;51.986;4.666;2023-05-19T00:39:49;1999.90;;;999.90;;
38615;SDS011;24370;51.986;4.666;2023-05-19T00:42:14;1999.90;;;999.90;;
38615;SDS011;24370;51.986;4.666;2023-05-19T00:44:40;1999.90;;;999.90;;
38615;SDS011;24370;51.986;4.666;2023-05-19T00:47:06;1999.90;;;999.90;;
38615;SDS011;24370;51.986;4.666;2023-05-19T00:49:32;1999.90;;;999.90;;
38615;SDS011;24370;51.986;4.666;2023-05-19T00:51:58;1999.90;;;999.90;;
38615;SDS011;24370;51.986;4.666;2023-05-19T00:54:26;1999.90;;;999.90;;
38615;SDS011;24370;51.986;4.666;2023-05-19T00:56:53;1999.90;;;999.90;;
38615;SDS011;24370;51.986;4.666;2023-05-19T00:59:19;1999.90;;;999.90;;
38615;SDS011;24370;51.986;4.666;2023-05-19T01:01:45;1999.90;;;999.90;;
38615;SDS011;24370;51.986;4.666;2023-05-19T01:04:14;1999.90;;;999.90;;
38615;SDS011;24370;51.986;4.666;2023-05-19T01:06:40;1999.90;;;999.90;;
38615;SDS011;24370;51.986;4.666;2023-05-19T01:09:06;1999.90;;;999.90;;
38615;SDS011;24370;51.986;4.666;2023-05-19T01:11:33;1999.90;;;999.90;;
38615;SDS011;24370;51.986;4.666;2023-05-19T01:13:58;1999.90;;;999.90;;
38615;SDS011;24370;51.986;4.666;2023-05-19T01:16:25;1999.90;;;999.90;;
38615;SDS011;24370;51.986;4.666;2023-05-19T01:19:11;1999.90;;;999.90;;
38615;SDS011;24370;51.986;4.666;2023-05-19T01:32:47;1999.90;;;999.90;;
38615;SDS011;24370;51.986;4.666;2023-05-19T01:35:15;1999.90;;;999.90;;
38615;SDS011;24370;51.986;4.666;2023-05-19T01:37:41;1999.90;;;999.90;;
38615;SDS011;24370;51.986;4.666;2023-05-19T01:40:06;1999.90;;;999.90;;
38615;SDS011;24370;51.986;4.666;2023-05-19T01:42:33;1999.90;;;999.90;;
38615;SDS011;24370;51.986;4.666;2023-05-19T01:45:02;1999.90;;;999.90;;
38615;SDS011;24370;51.986;4.666;2023-05-19T01:47:31;1999.90;;;999.90;;
38615;SDS011;24370;51.986;4.666;2023-05-19T01:49:59;1999.90;;;999.90;;
38615;SDS011;24370;51.986;4.666;2023-05-19T01:52:24;1999.90;;;999.90;;
38615;SDS011;24370;51.986;4.666;2023-05-19T01:54:50;1999.90;;;999.90;;
38615;SDS011;24370;51.986;4.666;2023-05-19T02:08:51;1999.90;;;999.90;;
38615;SDS011;24370;51.986;4.666;2023-05-19T02:11:45;1999.90;;;999.90;;
38615;SDS011;24370;51.986;4.666;2023-05-19T02:14:37;1999.90;;;999.90;;
38615;SDS011;24370;51.986;4.666;2023-05-19T02:17:05;1999.90;;;999.90;;
38615;SDS011;24370;51.986;4.666;2023-05-19T02:19:35;1999.90;;;999.90;;
38615;SDS011;24370;51.986;4.666;2023-05-19T02:22:02;1999.90;;;999.90;;
38615;SDS011;24370;51.986;4.666;2023-05-19T02:24:27;1999.90;;;999.90;;
38615;SDS011;24370;51.986;4.666;2023-05-19T02:26:53;1999.90;;;999.90;;
38615;SDS011;24370;51.986;4.666;2023-05-19T02:29:18;1999.90;;;999.90;;
38615;SDS011;24370;51.986;4.666;2023-05-19T02:31:45;1999.90;;;999.90;;
38615;SDS011;24370;51.986;4.666;2023-05-19T02:34:10;1999.90;;;999.90;;
38615;SDS011;24370;51.986;4.666;2023-05-19T02:36:39;1999.90;;;999.90;;
38615;SDS011;24370;51.986;4.666;2023-05-19T02:39:07;1999.90;;;999.90;;
38615;SDS011;24370;51.986;4.666;2023-05-19T02:41:33;1999.90;;;999.90;;
38615;SDS011;24370;51.986;4.666;2023-05-19T02:43:58;1999.90;;;999.90;;
38615;SDS011;24370;51.986;4.666;2023-05-19T02:46:24;1999.90;;;999.90;;
38615;SDS011;24370;51.986;4.666;2023-05-19T02:48:49;1999.90;;;999.90;;
38615;SDS011;24370;51.986;4.666;2023-05-19T02:51:16;1999.90;;;999.90;;
38615;SDS011;24370;51.986;4.666;2023-05-19T02:53:41;1999.90;;;999.90;;
38615;SDS011;24370;51.986;4.666;2023-05-19T02:56:06;1999.90;;;999.90;;
38615;SDS011;24370;51.986;4.666;2023-05-19T02:58:32;1999.90;;;999.90;;
38615;SDS011;24370;51.986;4.666;2023-05-19T03:00:57;1999.90;;;999.90;;
38615;SDS011;24370;51.986;4.666;2023-05-19T03:03:23;1999.90;;;999.90;;
38615;SDS011;24370;51.986;4.666;2023-05-19T03:05:48;1999.90;;;999.90;;
38615;SDS011;24370;51.986;4.666;2023-05-19T03:08:13;1999.90;;;999.90;;
38615;SDS011;24370;51.986;4.666;2023-05-19T03:10:39;1999.90;;;999.90;;
38615;SDS011;24370;51.986;4.666;2023-05-19T03:13:04;1999.90;;;999.90;;
38615;SDS011;24370;51.986;4.666;2023-05-19T03:15:30;1999.90;;;999.90;;
38615;SDS011;24370;51.986;4.666;2023-05-19T03:17:56;1999.90;;;999.90;;
38615;SDS011;24370;51.986;4.666;2023-05-19T03:20:21;1999.90;;;999.90;;
38615;SDS011;24370;51.986;4.666;2023-05-19T03:22:48;1999.90;;;999.90;;
38615;SDS011;24370;51.986;4.666;2023-05-19T03:25:13;1999.90;;;999.90;;
38615;SDS011;24370;51.986;4.666;2023-05-19T03:27:39;1999.90;;;999.90;;
38615;SDS011;24370;51.986;4.666;2023-05-19T03:30:05;1999.90;;;999.90;;
38615;SDS011;24370;51.986;4.666;2023-05-19T03:32:31;1999.90;;;999.90;;
38615;SDS011;24370;51.986;4.666;2023-05-19T03:34:57;1999.90;;;999.90;;
38615;SDS011;24370;51.986;4.666;2023-05-19T03:37:22;1999.90;;;999.90;;
38615;SDS011;24370;51.986;4.666;2023-05-19T03:39:48;1999.90;;;999.90;;
38615;SDS011;24370;51.986;4.666;2023-05-19T03:42:13;1999.90;;;999.90;;
38615;SDS011;24370;51.986;4.666;2023-05-19T03:44:39;1999.90;;;999.90;;
38615;SDS011;24370;51.986;4.666;2023-05-19T03:47:04;1999.90;;;999.90;;
38615;SDS011;24370;51.986;4.666;2023-05-19T03:49:29;1999.90;;;999.90;;
38615;SDS011;24370;51.986;4.666;2023-05-19T03:51:55;1999.90;;;999.90;;
38615;SDS011;24370;51.986;4.666;2023-05-19T03:54:20;1999.90;;;999.90;;
38615;SDS011;24370;51.986;4.666;2023-05-19T03:56:46;1999.90;;;999.90;;
38615;SDS011;24370;51.986;4.666;2023-05-19T03:59:12;1999.90;;;999.90;;
38615;SDS011;24370;51.986;4.666;2023-05-19T04:01:37;1999.90;;;999.90;;
38615;SDS011;24370;51.986;4.666;2023-05-19T04:04:03;1999.90;;;999.90;;
38615;SDS011;24370;51.986;4.666;2023-05-19T04:06:29;1999.90;;;999.90;;
38615;SDS011;24370;51.986;4.666;2023-05-19T04:08:55;1999.90;;;999.90;;
38615;SDS011;24370;51.986;4.666;2023-05-19T04:11:20;1999.90;;;999.90;;
38615;SDS011;24370;51.986;4.666;2023-05-19T04:13:46;1999.90;;;999.90;;
38615;SDS011;24370;51.986;4.666;2023-05-19T04:16:11;1999.90;;;999.90;;
38615;SDS011;24370;51.986;4.666;2023-05-19T04:18:36;1999.90;;;999.90;;
38615;SDS011;24370;51.986;4.666;2023-05-19T04:21:02;1999.90;;;999.90;;
38615;SDS011;24370;51.986;4.666;2023-05-19T04:23:27;1999.90;;;999.90;;
38615;SDS011;24370;51.986;4.666;2023-05-19T04:25:53;1999.90;;;999.90;;
38615;SDS011;24370;51.986;4.666;2023-05-19T04:28:19;1999.90;;;999.90;;
38615;SDS011;24370;51.986;4.666;2023-05-19T04:30:45;1999.90;;;999.90;;
38615;SDS011;24370;51.986;4.666;2023-05-19T04:33:10;1999.90;;;999.90;;
38615;SDS011;24370;51.986;4.666;2023-05-19T04:35:37;1999.90;;;999.90;;
38615;SDS011;24370;51.986;4.666;2023-05-19T04:38:03;1999.90;;;999.90;;
38615;SDS011;24370;51.986;4.666;2023-05-19T04:40:29;1999.90;;;999.90;;
38615;SDS011;24370;51.986;4.666;2023-05-19T04:42:55;1999.90;;;999.90;;
38615;SDS011;24370;51.986;4.666;2023-05-19T04:45:21;1999.90;;;999.90;;
38615;SDS011;24370;51.986;4.666;2023-05-19T04:47:47;1999.90;;;999.90;;
38615;SDS011;24370;51.986;4.666;2023-05-19T04:50:13;1999.90;;;999.90;;
38615;SDS011;24370;51.986;4.666;2023-05-19T04:52:39;1999.90;;;999.90;;
38615;SDS011;24370;51.986;4.666;2023-05-19T04:55:09;1999.90;;;999.90;;
38615;SDS011;24370;51.986;4.666;2023-05-19T04:57:35;1999.90;;;999.90;;
38615;SDS011;24370;51.986;4.666;2023-05-19T05:00:01;1999.90;;;999.90;;
38615;SDS011;24370;51.986;4.666;2023-05-19T05:02:31;1999.90;;;999.90;;
38615;SDS011;24370;51.986;4.666;2023-05-19T05:04:57;1999.90;;;999.90;;
38615;SDS011;24370;51.986;4.666;2023-05-19T05:07:23;1999.90;;;999.90;;
38615;SDS011;24370;51.986;4.666;2023-05-19T05:09:49;1999.90;;;999.90;;
38615;SDS011;24370;51.986;4.666;2023-05-19T05:12:15;1999.90;;;999.90;;
38615;SDS011;24370;51.986;4.666;2023-05-19T05:14:42;1999.90;;;999.90;;
38615;SDS011;24370;51.986;4.666;2023-05-19T05:17:08;1999.90;;;999.90;;
38615;SDS011;24370;51.986;4.666;2023-05-19T05:19:34;1999.90;;;999.90;;
38615;SDS011;24370;51.986;4.666;2023-05-19T05:22:00;1999.90;;;999.90;;
38615;SDS011;24370;51.986;4.666;2023-05-19T05:24:26;1999.90;;;999.90;;
38615;SDS011;24370;51.986;4.666;2023-05-19T05:26:51;1999.90;;;999.90;;
38615;SDS011;24370;51.986;4.666;2023-05-19T05:29:18;1999.90;;;999.90;;
38615;SDS011;24370;51.986;4.666;2023-05-19T05:31:44;1999.90;;;999.90;;
38615;SDS011;24370;51.986;4.666;2023-05-19T05:34:09;1999.90;;;999.90;;
38615;SDS011;24370;51.986;4.666;2023-05-19T05:36:35;1999.90;;;999.90;;
38615;SDS011;24370;51.986;4.666;2023-05-19T05:39:00;1999.90;;;999.90;;
38615;SDS011;24370;51.986;4.666;2023-05-19T05:41:26;1999.90;;;999.90;;
38615;SDS011;24370;51.986;4.666;2023-05-19T05:43:53;1999.90;;;999.90;;
38615;SDS011;24370;51.986;4.666;2023-05-19T05:46:19;1999.90;;;999.90;;
38615;SDS011;24370;51.986;4.666;2023-05-19T05:48:44;1999.90;;;999.90;;
38615;SDS011;24370;51.986;4.666;2023-05-19T05:51:10;1999.90;;;999.90;;
38615;SDS011;24370;51.986;4.666;2023-05-19T05:53:39;1999.90;;;999.90;;
38615;SDS011;24370;51.986;4.666;2023-05-19T05:56:07;1999.90;;;999.90;;
38615;SDS011;24370;51.986;4.666;2023-05-19T05:58:33;1999.90;;;999.90;;
38615;SDS011;24370;51.986;4.666;2023-05-19T06:00:59;1999.90;;;999.90;;
38615;SDS011;24370;51.986;4.666;2023-05-19T06:03:26;1999.90;;;999.90;;
38615;SDS011;24370;51.986;4.666;2023-05-19T06:05:52;1999.90;;;999.90;;
38615;SDS011;24370;51.986;4.666;2023-05-19T06:08:17;1999.90;;;999.90;;
38615;SDS011;24370;51.986;4.666;2023-05-19T06:10:43;1999.90;;;999.90;;
38615;SDS011;24370;51.986;4.666;2023-05-19T06:13:08;1999.90;;;999.90;;
38615;SDS011;24370;51.986;4.666;2023-05-19T06:15:34;1999.90;;;999.90;;
38615;SDS011;24370;51.986;4.666;2023-05-19T06:18:00;1999.90;;;999.90;;
38615;SDS011;24370;51.986;4.666;2023-05-19T06:20:25;1999.90;;;999.90;;
38615;SDS011;24370;51.986;4.666;2023-05-19T06:22:51;1999.90;;;999.90;;
38615;SDS011;24370;51.986;4.666;2023-05-19T06:25:16;1999.90;;;999.90;;
38615;SDS011;24370;51.986;4.666;2023-05-19T06:27:42;1999.90;;;999.90;;
38615;SDS011;24370;51.986;4.666;2023-05-19T06:30:07;1999.90;;;999.90;;
38615;SDS011;24370;51.986;4.666;2023-05-19T06:32:33;1999.90;;;999.90;;
38615;SDS011;24370;51.986;4.666;2023-05-19T06:34:58;1999.90;;;999.90;;
38615;SDS011;24370;51.986;4.666;2023-05-19T06:37:24;1503.85;;;753.63;;
38615;SDS011;24370;51.986;4.666;2023-05-19T06:39:50;1999.90;;;999.90;;
38615;SDS011;24370;51.986;4.666;2023-05-19T06:42:17;15.57;;;14.50;;
38615;SDS011;24370;51.986;4.666;2023-05-19T06:44:46;14.18;;;13.25;;
38615;SDS011;24370;51.986;4.666;2023-05-19T06:47:15;14.93;;;13.98;;
38615;SDS011;24370;51.986;4.666;2023-05-19T06:49:40;14.63;;;13.63;;
38615;SDS011;24370;51.986;4.666;2023-05-19T06:52:06;14.68;;;13.57;;
38615;SDS011;24370;51.986;4.666;2023-05-19T06:54:32;13.27;;;12.43;;
38615;SDS011;24370;51.986;4.666;2023-05-19T06:56:57;12.02;;;11.32;;
38615;SDS011;24370;51.986;4.666;2023-05-19T06:59:24;13.20;;;12.13;;
38615;SDS011;24370;51.986;4.666;2023-05-19T07:01:49;13.98;;;13.00;;
38615;SDS011;24370;51.986;4.666;2023-05-19T07:04:14;13.20;;;12.40;;
38615;SDS011;24370;51.986;4.666;2023-05-19T07:06:40;14.43;;;13.43;;
38615;SDS011;24370;51.986;4.666;2023-05-19T07:09:05;13.55;;;12.65;;
38615;SDS011;24370;51.986;4.666;2023-05-19T07:11:31;13.68;;;12.77;;
38615;SDS011;24370;51.986;4.666;2023-05-19T07:13:56;13.05;;;12.25;;
38615;SDS011;24370;51.986;4.666;2023-05-19T07:16:21;14.05;;;13.15;;
38615;SDS011;24370;51.986;4.666;2023-05-19T07:18:47;14.60;;;13.63;;
38615;SDS011;24370;51.986;4.666;2023-05-19T07:21:12;14.38;;;13.40;;
38615;SDS011;24370;51.986;4.666;2023-05-19T07:23:38;16.63;;;15.27;;
38615;SDS011;24370;51.986;4.666;2023-05-19T07:26:06;15.43;;;14.27;;
38615;SDS011;24370;51.986;4.666;2023-05-19T07:28:31;15.27;;;14.30;;
38615;SDS011;24370;51.986;4.666;2023-05-19T07:30:58;15.00;;;14.10;;
38615;SDS011;24370;51.986;4.666;2023-05-19T07:33:24;15.23;;;14.20;;
38615;SDS011;24370;51.986;4.666;2023-05-19T07:35:50;15.05;;;14.15;;
38615;SDS011;24370;51.986;4.666;2023-05-19T07:38:16;13.60;;;12.80;;
38615;SDS011;24370;51.986;4.666;2023-05-19T07:40:42;14.30;;;13.20;;
38615;SDS011;24370;51.986;4.666;2023-05-19T07:43:07;13.93;;;13.10;;
38615;SDS011;24370;51.986;4.666;2023-05-19T07:45:33;13.90;;;12.98;;
38615;SDS011;24370;51.986;4.666;2023-05-19T07:47:58;14.40;;;13.38;;
38615;SDS011;24370;51.986;4.666;2023-05-19T07:50:23;13.20;;;12.32;;
38615;SDS011;24370;51.986;4.666;2023-05-19T07:52:49;13.45;;;12.48;;
38615;SDS011;24370;51.986;4.666;2023-05-19T07:55:14;12.02;;;11.32;;
38615;SDS011;24370;51.986;4.666;2023-05-19T07:57:41;12.02;;;11.23;;
38615;SDS011;24370;51.986;4.666;2023-05-19T08:00:07;15.00;;;14.00;;
38615;SDS011;24370;51.986;4.666;2023-05-19T08:02:35;12.48;;;11.77;;
38615;SDS011;24370;51.986;4.666;2023-05-19T08:05:01;13.93;;;12.70;;
38615;SDS011;24370;51.986;4.666;2023-05-19T08:07:26;12.95;;;12.05;;
38615;SDS011;24370;51.986;4.666;2023-05-19T08:09:52;13.25;;;12.13;;
38615;SDS011;24370;51.986;4.666;2023-05-19T08:12:17;12.80;;;12.07;;
38615;SDS011;24370;51.986;4.666;2023-05-19T08:14:42;12.48;;;11.60;;
38615;SDS011;24370;51.986;4.666;2023-05-19T08:17:08;13.20;;;12.20;;
38615;SDS011;24370;51.986;4.666;2023-05-19T08:19:33;11.13;;;10.52;;
38615;SDS011;24370;51.986;4.666;2023-05-19T08:21:59;13.25;;;12.45;;
38615;SDS011;24370;51.986;4.666;2023-05-19T08:24:25;13.73;;;12.30;;
38615;SDS011;24370;51.986;4.666;2023-05-19T08:26:53;13.43;;;12.55;;
38615;SDS011;24370;51.986;4.666;2023-05-19T08:29:19;13.15;;;12.35;;
38615;SDS011;24370;51.986;4.666;2023-05-19T08:31:44;12.00;;;11.30;;
38615;SDS011;24370;51.986;4.666;2023-05-19T08:34:10;12.02;;;10.98;;
38615;SDS011;24370;51.986;4.666;2023-05-19T08:36:35;11.88;;;11.13;;
38615;SDS011;24370;51.986;4.666;2023-05-19T08:39:00;12.02;;;11.30;;
38615;SDS011;24370;51.986;4.666;2023-05-19T08:41:26;12.95;;;11.95;;
38615;SDS011;24370;51.986;4.666;2023-05-19T08:43:51;13.63;;;12.77;;
38615;SDS011;24370;51.986;4.666;2023-05-19T08:46:17;13.20;;;12.50;;
38615;SDS011;24370;51.986;4.666;2023-05-19T08:48:45;12.65;;;11.85;;
38615;SDS011;24370;51.986;4.666;2023-05-19T08:53:56;13.52;;;12.63;;
38615;SDS011;24370;51.986;4.666;2023-05-19T08:56:31;12.13;;;11.52;;
38615;SDS011;24370;51.986;4.666;2023-05-19T08:58:57;13.23;;;12.23;;
38615;SDS011;24370;51.986;4.666;2023-05-19T09:01:24;12.38;;;11.77;;
38615;SDS011;24370;51.986;4.666;2023-05-19T09:03:52;13.05;;;12.40;;
38615;SDS011;24370;51.986;4.666;2023-05-19T09:06:18;14.00;;;12.95;;
38615;SDS011;24370;51.986;4.666;2023-05-19T09:08:44;12.38;;;11.77;;
38615;SDS011;24370;51.986;4.666;2023-05-19T09:11:11;13.43;;;12.63;;
38615;SDS011;24370;51.986;4.666;2023-05-19T09:13:36;11.43;;;10.82;;
38615;SDS011;24370;51.986;4.666;2023-05-19T09:16:02;12.15;;;11.55;;
38615;SDS011;24370;51.986;4.666;2023-05-19T09:18:27;11.73;;;11.10;;
38615;SDS011;24370;51.986;4.666;2023-05-19T09:20:57;12.95;;;12.15;;
38615;SDS011;24370;51.986;4.666;2023-05-19T09:23:25;12.57;;;11.90;;
38615;SDS011;24370;51.986;4.666;2023-05-19T09:25:53;12.85;;;12.13;;
38615;SDS011;24370;51.986;4.666;2023-05-19T09:28:26;12.82;;;12.18;;
38615;SDS011;24370;51.986;4.666;2023-05-19T09:31:07;13.77;;;12.70;;
38615;SDS011;24370;51.986;4.666;2023-05-19T09:33:34;13.60;;;12.65;;
38615;SDS011;24370;51.986;4.666;2023-05-19T09:36:01;11.65;;;11.02;;
38615;SDS011;24370;51.986;4.666;2023-05-19T09:38:29;12.63;;;11.93;;
38615;SDS011;24370;51.986;4.666;2023-05-19T09:40:55;12.27;;;11.57;;
38615;SDS011;24370;51.986;4.666;2023-05-19T09:43:22;11.43;;;10.82;;
38615;SDS011;24370;51.986;4.666;2023-05-19T09:45:48;11.88;;;11.07;;
38615;SDS011;24370;51.986;4.666;2023-05-19T09:48:17;13.60;;;12.80;;
38615;SDS011;24370;51.986;4.666;2023-05-19T09:50:43;13.02;;;12.25;;
38615;SDS011;24370;51.986;4.666;2023-05-19T09:53:10;13.38;;;12.57;;
38615;SDS011;24370;51.986;4.666;2023-05-19T09:55:37;11.93;;;11.25;;
38615;SDS011;24370;51.986;4.666;2023-05-19T09:58:04;12.80;;;11.80;;
38615;SDS011;24370;51.986;4.666;2023-05-19T10:00:31;12.02;;;11.35;;
38615;SDS011;24370;51.986;4.666;2023-05-19T10:02:58;17.45;;;13.10;;
38615;SDS011;24370;51.986;4.666;2023-05-19T10:05:25;10.68;;;10.18;;
38615;SDS011;24370;51.986;4.666;2023-05-19T10:07:52;12.77;;;12.02;;
38615;SDS011;24370;51.986;4.666;2023-05-19T10:10:18;12.13;;;11.32;;
38615;SDS011;24370;51.986;4.666;2023-05-19T10:12:45;11.68;;;10.82;;
38615;SDS011;24370;51.986;4.666;2023-05-19T10:15:13;12.48;;;11.77;;
38615;SDS011;24370;51.986;4.666;2023-05-19T10:17:40;12.25;;;11.55;;
38615;SDS011;24370;51.986;4.666;2023-05-19T10:20:11;11.45;;;10.88;;
38615;SDS011;24370;51.986;4.666;2023-05-19T10:22:38;13.23;;;12.27;;
38615;SDS011;24370;51.986;4.666;2023-05-19T10:25:04;12.18;;;11.48;;
38615;SDS011;24370;51.986;4.666;2023-05-19T10:27:32;12.50;;;11.82;;
38615;SDS011;24370;51.986;4.666;2023-05-19T10:30:03;12.90;;;12.15;;
38615;SDS011;24370;51.986;4.666;2023-05-19T10:32:37;12.40;;;11.65;;
38615;SDS011;24370;51.986;4.666;2023-05-19T10:38:07;12.55;;;11.77;;
38615;SDS011;24370;51.986;4.666;2023-05-19T10:45:48;13.82;;;13.02;;
38615;SDS011;24370;51.986;4.666;2023-05-19T10:48:16;15.70;;;14.55;;
38615;SDS011;24370;51.986;4.666;2023-05-19T10:50:44;13.40;;;12.52;;
38615;SDS011;24370;51.986;4.666;2023-05-19T10:53:14;13.05;;;12.43;;
38615;SDS011;24370;51.986;4.666;2023-05-19T11:01:21;15.50;;;14.60;;
38615;SDS011;24370;51.986;4.666;2023-05-19T11:03:55;14.93;;;13.88;;
38615;SDS011;24370;51.986;4.666;2023-05-19T11:06:24;13.15;;;12.25;;
38615;SDS011;24370;51.986;4.666;2023-05-19T11:08:55;12.32;;;11.52;;
38615;SDS011;24370;51.986;4.666;2023-05-19T11:11:50;13.15;;;12.32;;
38615;SDS011;24370;51.986;4.666;2023-05-19T11:14:26;11.95;;;11.25;;
38615;SDS011;24370;51.986;4.666;2023-05-19T11:16:55;11.52;;;10.90;;
38615;SDS011;24370;51.986;4.666;2023-05-19T11:19:27;13.30;;;12.60;;
38615;SDS011;24370;51.986;4.666;2023-05-19T11:22:08;11.55;;;10.95;;
38615;SDS011;24370;51.986;4.666;2023-05-19T11:29:43;12.20;;;11.48;;
38615;SDS011;24370;51.986;4.666;2023-05-19T11:32:09;12.73;;;11.85;;
38615;SDS011;24370;51.986;4.666;2023-05-19T11:34:36;12.85;;;12.00;;
38615;SDS011;24370;51.986;4.666;2023-05-19T11:37:02;11.20;;;10.60;;
38615;SDS011;24370;51.986;4.666;2023-05-19T11:39:32;13.10;;;12.48;;
38615;SDS011;24370;51.986;4.666;2023-05-19T11:41:57;15.80;;;14.75;;
38615;SDS011;24370;51.986;4.666;2023-05-19T11:44:23;13.10;;;12.15;;
38615;SDS011;24370;51.986;4.666;2023-05-19T11:46:48;13.00;;;12.02;;
38615;SDS011;24370;51.986;4.666;2023-05-19T11:49:14;13.55;;;12.75;;
38615;SDS011;24370;51.986;4.666;2023-05-19T11:51:43;13.50;;;12.48;;
38615;SDS011;24370;51.986;4.666;2023-05-19T11:54:10;13.50;;;12.50;;
38615;SDS011;24370;51.986;4.666;2023-05-19T11:56:40;13.02;;;12.43;;
38615;SDS011;24370;51.986;4.666;2023-05-19T11:59:07;13.25;;;12.52;;
38615;SDS011;24370;51.986;4.666;2023-05-19T12:01:33;12.98;;;12.13;;
38615;SDS011;24370;51.986;4.666;2023-05-19T12:03:59;12.05;;;11.18;;
38615;SDS011;24370;51.986;4.666;2023-05-19T12:06:25;12.80;;;11.95;;
38615;SDS011;24370;51.986;4.666;2023-05-19T12:08:51;11.93;;;11.27;;
38615;SDS011;24370;51.986;4.666;2023-05-19T12:11:18;11.65;;;10.95;;
38615;SDS011;24370;51.986;4.666;2023-05-19T12:13:44;12.45;;;11.77;;
38615;SDS011;24370;51.986;4.666;2023-05-19T12:16:10;11.95;;;11.30;;
38615;SDS011;24370;51.986;4.666;2023-05-19T12:18:36;11.88;;;11.18;;
38615;SDS011;24370;51.986;4.666;2023-05-19T12:21:03;14.48;;;13.40;;
38615;SDS011;24370;51.986;4.666;2023-05-19T12:23:31;12.57;;;11.88;;
38615;SDS011;24370;51.986;4.666;2023-05-19T12:25:58;13.27;;;12.45;;
38615;SDS011;24370;51.986;4.666;2023-05-19T12:28:24;13.68;;;12.98;;
38615;SDS011;24370;51.986;4.666;2023-05-19T12:30:50;13.57;;;12.40;;
38615;SDS011;24370;51.986;4.666;2023-05-19T12:33:19;12.13;;;11.18;;
38615;SDS011;24370;51.986;4.666;2023-05-19T12:35:47;13.18;;;12.38;;
38615;SDS011;24370;51.986;4.666;2023-05-19T12:38:14;12.77;;;11.82;;
38615;SDS011;24370;51.986;4.666;2023-05-19T12:40:40;12.10;;;11.50;;
38615;SDS011;24370;51.986;4.666;2023-05-19T12:43:06;12.75;;;11.95;;
38615;SDS011;24370;51.986;4.666;2023-05-19T12:45:36;15.23;;;14.27;;
38615;SDS011;24370;51.986;4.666;2023-05-19T12:48:10;13.88;;;12.75;;
38615;SDS011;24370;51.986;4.666;2023-05-19T12:50:35;14.85;;;13.80;;
38615;SDS011;24370;51.986;4.666;2023-05-19T12:53:02;12.98;;;12.15;;
38615;SDS011;24370;51.986;4.666;2023-05-19T12:55:28;12.02;;;11.35;;
38615;SDS011;24370;51.986;4.666;2023-05-19T12:57:53;13.35;;;12.55;;
38615;SDS011;24370;51.986;4.666;2023-05-19T13:00:22;12.25;;;11.55;;
38615;SDS011;24370;51.986;4.666;2023-05-19T13:03:00;13.60;;;12.77;;
38615;SDS011;24370;51.986;4.666;2023-05-19T13:05:26;12.50;;;11.80;;
38615;SDS011;24370;51.986;4.666;2023-05-19T13:07:55;13.77;;;12.98;;
38615;SDS011;24370;51.986;4.666;2023-05-19T13:10:34;14.30;;;13.32;;
38615;SDS011;24370;51.986;4.666;2023-05-19T13:13:01;12.32;;;11.52;;
38615;SDS011;24370;51.986;4.666;2023-05-19T13:15:28;12.38;;;11.68;;
38615;SDS011;24370;51.986;4.666;2023-05-19T13:17:58;12.00;;;11.30;;
38615;SDS011;24370;51.986;4.666;2023-05-19T13:20:25;13.93;;;13.07;;
38615;SDS011;24370;51.986;4.666;2023-05-19T13:22:50;11.68;;;11.05;;
38615;SDS011;24370;51.986;4.666;2023-05-19T13:25:16;13.02;;;12.00;;
38615;SDS011;24370;51.986;4.666;2023-05-19T13:27:45;13.70;;;13.00;;
38615;SDS011;24370;51.986;4.666;2023-05-19T13:30:12;12.88;;;12.07;;
38615;SDS011;24370;51.986;4.666;2023-05-19T13:32:37;13.45;;;12.65;;
38615;SDS011;24370;51.986;4.666;2023-05-19T13:35:06;13.20;;;12.50;;
38615;SDS011;24370;51.986;4.666;2023-05-19T13:37:33;14.00;;;13.10;;
38615;SDS011;24370;51.986;4.666;2023-05-19T13:39:59;12.57;;;11.68;;
38615;SDS011;24370;51.986;4.666;2023-05-19T13:42:25;12.73;;;12.02;;
38615;SDS011;24370;51.986;4.666;2023-05-19T13:44:53;12.75;;;11.95;;
38615;SDS011;24370;51.986;4.666;2023-05-19T13:47:20;12.45;;;11.80;;
38615;SDS011;24370;51.986;4.666;2023-05-19T13:49:48;12.50;;;11.70;;
38615;SDS011;24370;51.986;4.666;2023-05-19T13:52:14;12.80;;;11.85;;
38615;SDS011;24370;51.986;4.666;2023-05-19T13:54:39;12.60;;;11.80;;
38615;SDS011;24370;51.986;4.666;2023-05-19T13:57:05;14.13;;;13.23;;
38615;SDS011;24370;51.986;4.666;2023-05-19T13:59:30;12.73;;;11.98;;
38615;SDS011;24370;51.986;4.666;2023-05-19T14:01:56;13.63;;;12.65;;
38615;SDS011;24370;51.986;4.666;2023-05-19T14:04:21;13.13;;;12.32;;
38615;SDS011;24370;51.986;4.666;2023-05-19T14:06:48;13.25;;;12.27;;
38615;SDS011;24370;51.986;4.666;2023-05-19T14:09:14;13.50;;;12.48;;
38615;SDS011;24370;51.986;4.666;2023-05-19T14:11:40;13.27;;;12.57;;
38615;SDS011;24370;51.986;4.666;2023-05-19T14:14:06;13.77;;;12.93;;
38615;SDS011;24370;51.986;4.666;2023-05-19T14:16:31;12.40;;;11.80;;
38615;SDS011;24370;51.986;4.666;2023-05-19T14:18:57;13.98;;;13.10;;
38615;SDS011;24370;51.986;4.666;2023-05-19T14:21:22;13.75;;;12.82;;
38615;SDS011;24370;51.986;4.666;2023-05-19T14:23:48;13.80;;;12.90;;
38615;SDS011;24370;51.986;4.666;2023-05-19T14:26:13;13.30;;;12.50;;
38615;SDS011;24370;51.986;4.666;2023-05-19T14:28:39;13.13;;;12.43;;
38615;SDS011;24370;51.986;4.666;2023-05-19T14:31:04;13.38;;;12.68;;
38615;SDS011;24370;51.986;4.666;2023-05-19T14:33:30;14.02;;;13.23;;
38615;SDS011;24370;51.986;4.666;2023-05-19T14:35:56;28.70;;;17.42;;
38615;SDS011;24370;51.986;4.666;2023-05-19T14:38:24;14.00;;;12.77;;
38615;SDS011;24370;51.986;4.666;2023-05-19T14:40:50;12.35;;;11.73;;
38615;SDS011;24370;51.986;4.666;2023-05-19T14:43:15;15.45;;;14.48;;
38615;SDS011;24370;51.986;4.666;2023-05-19T14:45:40;13.85;;;12.90;;